Time;durP1;ratioP1;P1;durP2;ratioP2;P2;SDS_P1;SDS_P2;PMS_P1;PMS_P2;Temp;Humidity;BMP_temperature;BMP_pressure;BME280_temperature;BME280_humidity;BME280_pressure;Samples;Min_cycle;Max_cycle;Signal;HPM_P1;HPM_P2
2022/04/16 00:00:34;;;;;;;;;;;;;;;16.29;43.77;103206.81;5009601;28;19921;-76
2022/04/16 00:02:59;;;;;;;;;;;;;;;16.34;43.83;103205.16;5010258;28;20398;-77
2022/04/16 00:05:25;;;;;;;;;;;;;;;16.17;44.13;103208.47;5008743;28;20658;-76
2022/04/16 00:08:06;;;;;;;;;;;;;;;16.13;44.18;103218.91;5010180;28;20100;-76
2022/04/16 00:10:35;;;;;;;;;;;;;;;16.22;44.33;103217.66;5009881;28;20365;-76
2022/04/16 00:13:03;;;;;;;;;;;;;;;16.06;43.93;103228.06;5020481;28;19920;-75
2022/04/16 00:15:44;;;;;;;;;;;;;;;16.15;44.28;103216.81;4997483;28;20012;-73
2022/04/16 00:18:10;;;;;;;;;;;;;;;16.01;44.71;103219.66;4999300;28;19992;-75
2022/04/16 00:20:35;;;;;;;;;;;;;;;16.10;44.46;103218.44;5013680;28;20075;-72
2022/04/16 00:23:03;;;;;;;;;;;;;;;15.91;44.99;103220.06;5002469;28;19914;-74
2022/04/16 00:25:30;;;;;;;;;;;;;;;15.81;44.48;103214.16;4998293;28;19918;-75
2022/04/16 00:27:55;;;;;;;;;;;;;;;15.73;44.13;103225.19;5042987;28;19920;-74
2022/04/16 00:30:21;;;;;;;;;;;;;;;15.70;44.34;103215.56;5052004;28;19925;-75
2022/04/16 00:32:46;;;;;;;;;;;;;;;15.65;44.98;103220.78;5051303;28;19916;-75
2022/04/16 00:35:13;;;;;;;;;;;;;;;15.61;44.92;103222.22;5051656;28;19913;-74
2022/04/16 00:37:38;;;;;;;;;;;;;;;15.57;45.08;103223.66;5051557;28;19920;-74
2022/04/16 00:40:04;;;;;;;;;;;;;;;15.53;44.60;103216.94;5043167;28;19916;-75
2022/04/16 00:42:39;;;;;;;;;;;;;;;15.48;45.09;103219.44;5044908;28;19999;-73
2022/04/16 00:45:05;;;;;;;;;;;;;;;15.43;45.78;103221.06;5050761;28;19935;-74
2022/04/16 00:47:30;;;;;;;;;;;;;;;15.33;45.63;103220.56;5048700;28;20011;-74
2022/04/16 00:49:56;;;;;;;;;;;;;;;15.44;44.66;103217.31;5051325;28;19966;-74
2022/04/16 00:52:21;;;;;;;;;;;;;;;15.38;45.36;103220.78;5051716;28;20074;-74
2022/04/16 00:54:48;;;;;;;;;;;;;;;15.42;45.86;103214.81;5051054;28;19928;-74
2022/04/16 00:57:13;;;;;;;;;;;;;;;15.34;45.71;103217.63;5051434;28;19916;-75
2022/04/16 00:59:39;;;;;;;;;;;;;;;15.24;46.00;103225.28;5051237;28;19913;-73
2022/04/16 01:02:04;;;;;;;;;;;;;;;15.25;46.00;103215.28;5051199;28;19912;-75
2022/04/16 01:04:30;;;;;;;;;;;;;;;15.33;45.87;103220.56;5051960;28;19917;-77
2022/04/16 01:06:56;;;;;;;;;;;;;;;15.46;45.49;103218.78;5051491;28;19917;-74
2022/04/16 01:09:21;;;;;;;;;;;;;;;15.30;45.44;103226.34;5051724;28;20383;-74
2022/04/16 01:11:47;;;;;;;;;;;;;;;15.28;46.12;103223.00;5051905;28;19959;-73
2022/04/16 01:14:12;;;;;;;;;;;;;;;15.14;46.81;103226.66;5054741;28;19921;-74
2022/04/16 01:16:37;;;;;;;;;;;;;;;15.16;45.43;103228.13;5054820;28;20466;-74
2022/04/16 01:19:03;;;;;;;;;;;;;;;15.04;46.29;103232.41;5054802;28;19916;-74
2022/04/16 01:21:28;;;;;;;;;;;;;;;15.10;46.42;103237.03;5054681;28;20436;-73
2022/04/16 01:23:53;;;;;;;;;;;;;;;15.12;46.11;103237.69;5055891;28;19917;-74
2022/04/16 01:26:19;;;;;;;;;;;;;;;15.08;46.87;103244.53;5054809;28;19932;-73
2022/04/16 01:28:44;;;;;;;;;;;;;;;14.94;46.88;103246.28;5055540;28;19913;-73
2022/04/16 01:31:09;;;;;;;;;;;;;;;14.95;47.10;103245.28;5054234;28;19917;-74
2022/04/16 01:33:35;;;;;;;;;;;;;;;15.10;47.16;103252.44;5054140;28;19952;-73
2022/04/16 01:36:00;;;;;;;;;;;;;;;14.96;47.14;103248.81;5054751;28;19917;-74
2022/04/16 01:38:25;;;;;;;;;;;;;;;15.01;47.26;103257.19;5054084;28;19939;-73
2022/04/16 01:40:54;;;;;;;;;;;;;;;14.95;46.50;103261.53;5054690;28;19916;-74
2022/04/16 01:43:20;;;;;;;;;;;;;;;14.87;46.68;103267.06;5053052;28;20288;-73
2022/04/16 01:45:50;;;;;;;;;;;;;;;14.86;46.42;103267.25;5052049;28;19928;-74
2022/04/16 01:48:15;;;;;;;;;;;;;;;14.93;46.38;103266.28;5051715;28;19912;-75
2022/04/16 01:50:41;;;;;;;;;;;;;;;14.81;47.21;103265.13;5053877;28;19939;-73
2022/04/16 01:53:06;;;;;;;;;;;;;;;14.90;46.50;103263.97;5054132;28;19954;-73
2022/04/16 01:55:31;;;;;;;;;;;;;;;14.86;46.70;103261.81;5055082;28;20339;-73
2022/04/16 01:57:57;;;;;;;;;;;;;;;14.80;47.91;103268.03;5054341;28;20357;-74
2022/04/16 02:00:23;;;;;;;;;;;;;;;14.70;47.70;103265.63;5054081;28;19916;-74
2022/04/16 02:02:48;;;;;;;;;;;;;;;14.75;47.56;103263.22;5053489;28;19974;-75
2022/04/16 02:05:13;;;;;;;;;;;;;;;14.70;47.88;103264.81;5053058;28;19963;-74
2022/04/16 02:07:39;;;;;;;;;;;;;;;14.75;47.47;103267.78;5054245;28;19909;-75
2022/04/16 02:10:04;;;;;;;;;;;;;;;14.77;47.38;103265.72;5053619;28;19951;-75
2022/04/16 02:12:30;;;;;;;;;;;;;;;14.68;47.89;103266.88;5054260;28;20399;-75
2022/04/16 02:14:55;;;;;;;;;;;;;;;14.63;47.76;103263.91;5052115;28;20438;-76
2022/04/16 02:17:20;;;;;;;;;;;;;;;14.62;48.60;103263.06;5053296;28;20359;-74
2022/04/16 02:19:48;;;;;;;;;;;;;;;14.67;48.16;103268.75;5053939;28;19916;-74
2022/04/16 02:22:14;;;;;;;;;;;;;;;14.73;48.13;103265.25;5053425;28;19919;-74
2022/04/16 02:24:39;;;;;;;;;;;;;;;14.88;47.31;103267.88;5053214;28;20011;-74
2022/04/16 02:27:05;;;;;;;;;;;;;;;14.77;48.00;103266.56;5053548;28;19924;-74
2022/04/16 02:29:31;;;;;;;;;;;;;;;14.50;48.72;103274.59;5053651;28;19970;-74
2022/04/16 02:31:56;;;;;;;;;;;;;;;14.77;48.49;103271.13;5053404;28;19999;-73
2022/04/16 02:34:22;;;;;;;;;;;;;;;14.69;48.11;103272.09;5054389;28;19951;-74
2022/04/16 02:36:47;;;;;;;;;;;;;;;14.84;48.00;103270.16;5053844;28;19940;-73
2022/04/16 02:39:12;;;;;;;;;;;;;;;14.79;47.82;103267.19;5053436;28;19913;-73
2022/04/16 02:41:38;;;;;;;;;;;;;;;14.75;48.63;103271.31;5052121;28;19923;-74
2022/04/16 02:44:03;;;;;;;;;;;;;;;14.75;48.42;103273.19;5053507;28;20282;-74
2022/04/16 02:49:13;;;;;;;;;;;;;;;14.71;48.34;103275.44;5052224;28;20299;-73
2022/04/16 02:51:38;;;;;;;;;;;;;;;14.56;48.61;103276.53;5052968;28;20426;-73
2022/04/16 02:54:05;;;;;;;;;;;;;;;14.50;48.70;103266.47;5052859;28;19912;-75
2022/04/16 02:56:30;;;;;;;;;;;;;;;14.69;48.64;103269.38;5051093;28;19974;-74
2022/04/16 02:58:55;;;;;;;;;;;;;;;14.71;49.08;103278.16;5051498;28;20331;-74
2022/04/16 03:01:21;;;;;;;;;;;;;;;14.90;48.11;103282.91;5053472;28;19916;-75
2022/04/16 03:03:46;;;;;;;;;;;;;;;14.71;49.12;103280.88;5052890;28;19953;-75
2022/04/16 03:06:11;;;;;;;;;;;;;;;14.71;48.86;103285.44;5052679;28;20414;-74
2022/04/16 03:08:36;;;;;;;;;;;;;;;14.63;49.10;103291.81;5053261;28;19962;-75
2022/04/16 03:11:04;;;;;;;;;;;;;;;14.56;49.35;103290.06;5052857;28;19924;-73
2022/04/16 03:13:29;;;;;;;;;;;;;;;14.63;48.69;103293.66;5053128;28;19989;-75
2022/04/16 03:18:38;;;;;;;;;;;;;;;14.62;49.04;103289.31;5052155;28;19935;-73
2022/04/16 03:21:03;;;;;;;;;;;;;;;14.58;49.09;103296.97;5052184;28;19920;-74
2022/04/16 03:23:29;;;;;;;;;;;;;;;14.75;49.43;103298.41;5052125;28;20008;-73
2022/04/16 03:25:56;;;;;;;;;;;;;;;14.84;49.32;103299.09;5052151;28;19917;-73
2022/04/16 03:28:22;;;;;;;;;;;;;;;14.93;48.70;103295.22;5052640;28;20026;-73
2022/04/16 03:30:47;;;;;;;;;;;;;;;14.92;49.03;103298.97;5052641;28;19963;-73
2022/04/16 03:33:12;;;;;;;;;;;;;;;14.94;48.99;103305.88;5052380;28;19920;-74
2022/04/16 03:35:38;;;;;;;;;;;;;;;14.92;48.75;103299.81;5051768;28;19917;-73
2022/04/16 03:38:03;;;;;;;;;;;;;;;15.12;48.81;103310.81;5052245;28;20011;-73
2022/04/16 03:40:28;;;;;;;;;;;;;;;15.07;48.93;103312.44;5053167;28;19908;-74
2022/04/16 03:43:01;;;;;;;;;;;;;;;15.17;48.17;103313.78;5052387;28;20372;-74
2022/04/16 03:45:28;;;;;;;;;;;;;;;15.12;48.27;103310.81;5052630;28;20475;-73
2022/04/16 03:47:53;;;;;;;;;;;;;;;15.20;48.90;103307.97;5051882;28;19913;-72
2022/04/16 03:50:19;;;;;;;;;;;;;;;15.31;48.28;103307.44;5050521;28;19924;-72
2022/04/16 03:52:46;;;;;;;;;;;;;;;15.24;48.42;103313.81;5051095;28;19943;-74
2022/04/16 04:00:41;;;;;;;;;;;;;;;15.06;49.06;103322.41;5052119;28;19927;-74
2022/04/16 04:03:06;;;;;;;;;;;;;;;14.93;48.86;103336.69;5052322;28;19912;-73
2022/04/16 04:05:31;;;;;;;;;;;;;;;15.09;48.66;103327.47;5084506;28;19920;-73
2022/04/16 04:07:57;;;;;;;;;;;;;;;15.06;49.33;103330.53;5053400;28;19939;-73
2022/04/16 04:10:22;;;;;;;;;;;;;;;15.09;49.09;103340.16;5053536;28;20394;-73
2022/04/16 04:12:47;;;;;;;;;;;;;;;14.57;50.66;103341.28;5055477;28;20368;-73
2022/04/16 04:15:12;;;;;;;;;;;;;;;15.12;49.39;103335.19;5052977;28;19917;-74
2022/04/16 04:17:37;;;;;;;;;;;;;;;15.36;49.35;103342.06;5052977;28;20549;-72
2022/04/16 04:20:03;;;;;;;;;;;;;;;15.17;49.53;103342.75;5050540;28;19913;-74
2022/04/16 04:22:29;;;;;;;;;;;;;;;15.47;48.88;103345.09;5033390;28;19917;-74
2022/04/16 04:24:54;;;;;;;;;;;;;;;15.03;49.97;103349.91;5032874;28;19921;-74
2022/04/16 04:27:19;;;;;;;;;;;;;;;15.02;50.13;103352.81;5033538;28;19913;-74
2022/04/16 04:29:44;;;;;;;;;;;;;;;15.00;51.13;103354.88;5039075;28;19920;-74
2022/04/16 04:32:10;;;;;;;;;;;;;;;14.63;51.70;103358.63;5053577;28;20372;-73
2022/04/16 04:34:35;;;;;;;;;;;;;;;15.39;49.65;103366.06;5051862;28;19912;-76
2022/04/16 04:37:00;;;;;;;;;;;;;;;15.41;49.62;103366.72;5053379;28;20354;-73
2022/04/16 04:39:26;;;;;;;;;;;;;;;14.83;51.48;103373.22;5053195;28;19968;-74
2022/04/16 04:41:51;;;;;;;;;;;;;;;15.12;50.59;103364.13;5053670;28;19925;-74
2022/04/16 04:44:17;;;;;;;;;;;;;;;15.44;50.03;103371.78;5052005;28;19912;-75
2022/04/16 04:46:42;;;;;;;;;;;;;;;15.29;50.73;103379.13;5054755;28;20021;-74
2022/04/16 04:49:08;;;;;;;;;;;;;;;15.09;51.16;103369.94;5057000;28;20023;-74
2022/04/16 04:51:40;;;;;;;;;;;;;;;15.39;50.17;103375.03;5056471;28;19923;-77
2022/04/16 04:54:06;;;;;;;;;;;;;;;15.69;49.41;103389.28;5056827;28;19917;-74
2022/04/16 04:56:31;;;;;;;;;;;;;;;15.39;50.23;103385.03;5056847;28;19916;-72
2022/04/16 04:58:57;;;;;;;;;;;;;;;15.36;50.10;103396.25;5056893;28;19931;-74
2022/04/16 05:01:22;;;;;;;;;;;;;;;15.56;49.99;103386.47;5057794;28;20015;-74
2022/04/16 05:03:47;;;;;;;;;;;;;;;15.05;51.22;103395.75;5054873;28;19924;-75
2022/04/16 05:06:13;;;;;;;;;;;;;;;15.36;50.18;103398.97;5056556;28;20384;-74
2022/04/16 05:08:38;;;;;;;;;;;;;;;14.74;52.11;103396.84;5056634;28;19913;-74
2022/04/16 05:11:03;;;;;;;;;;;;;;;15.32;50.64;103403.09;5056567;28;19917;-73
2022/04/16 05:13:29;;;;;;;;;;;;;;;15.47;50.24;103403.88;5056860;28;19920;-74
2022/04/16 05:15:54;;;;;;;;;;;;;;;15.71;49.78;103404.31;5056379;28;19916;-74
2022/04/16 05:18:19;;;;;;;;;;;;;;;15.86;49.31;103403.38;5056427;28;20023;-74
2022/04/16 05:20:44;;;;;;;;;;;;;;;16.02;49.14;103408.50;5056280;28;19944;-74
2022/04/16 05:23:09;;;;;;;;;;;;;;;16.03;49.24;103411.03;5056258;28;19913;-75
2022/04/16 05:25:35;;;;;;;;;;;;;;;15.59;50.39;103411.31;5056477;28;19986;-74
2022/04/16 05:28:00;;;;;;;;;;;;;;;15.99;49.54;103417.03;5056081;28;19919;-74
2022/04/16 05:30:33;;;;;;;;;;;;;;;14.76;52.50;103419.16;5055272;28;20424;-74
2022/04/16 05:33:05;;;;;;;;;;;;;;;15.31;51.76;103420.41;5055432;28;19917;-74
2022/04/16 05:35:30;;;;;;;;;;;;;;;15.71;50.48;103425.16;5055956;28;19924;-74
2022/04/16 05:37:55;;;;;;;;;;;;;;;15.87;50.20;103432.16;5056932;28;19905;-74
2022/04/16 05:40:21;;;;;;;;;;;;;;;15.78;50.13;103432.31;5057285;28;19921;-75
2022/04/16 05:42:46;;;;;;;;;;;;;;;16.19;49.15;103428.84;5057038;28;19962;-75
2022/04/16 05:45:14;;;;;;;;;;;;;;;16.21;49.13;103429.50;5056606;28;19925;-75
2022/04/16 05:47:41;;;;;;;;;;;;;;;16.15;48.98;103425.72;5056803;28;19913;-74
2022/04/16 05:50:06;;;;;;;;;;;;;;;16.79;47.73;103430.84;5056096;28;19916;-74
2022/04/16 05:52:32;;;;;;;;;;;;;;;16.32;48.04;103424.34;5055260;28;19909;-75
2022/04/16 05:54:57;;;;;;;;;;;;;;;16.92;46.85;103426.31;5055923;28;19924;-74
2022/04/16 05:57:23;;;;;;;;;;;;;;;16.85;47.37;103422.72;5055092;28;19916;-76
2022/04/16 05:59:49;;;;;;;;;;;;;;;17.00;46.64;103428.81;5056010;28;19995;-75
2022/04/16 06:02:14;;;;;;;;;;;;;;;16.86;47.36;103435.28;5056170;28;19962;-74
2022/04/16 06:04:39;;;;;;;;;;;;;;;16.92;46.96;103433.63;5056225;28;19995;-73
2022/04/16 06:07:05;;;;;;;;;;;;;;;16.85;47.26;103436.31;5055897;28;19913;-75
2022/04/16 06:09:31;;;;;;;;;;;;;;;16.33;48.69;103433.31;5056264;28;19917;-75
2022/04/16 06:12:03;;;;;;;;;;;;;;;16.78;47.29;103437.31;5054795;28;19912;-74
2022/04/16 06:14:29;;;;;;;;;;;;;;;16.90;47.46;103449.28;5056045;28;19917;-76
2022/04/16 06:16:54;;;;;;;;;;;;;;;17.22;46.54;103445.81;5055123;28;20281;-75
2022/04/16 06:19:19;;;;;;;;;;;;;;;16.37;48.30;103443.56;5055530;28;19904;-76
2022/04/16 06:21:45;;;;;;;;;;;;;;;16.65;47.80;103455.22;5055418;28;19974;-75
2022/04/16 06:24:10;;;;;;;;;;;;;;;17.20;46.17;103447.91;5055603;28;19913;-76
2022/04/16 06:26:35;;;;;;;;;;;;;;;17.06;46.35;103452.47;5054964;28;19920;-75
2022/04/16 06:29:03;;;;;;;;;;;;;;;16.75;46.49;103457.56;5055014;28;19926;-76
2022/04/16 06:31:28;;;;;;;;;;;;;;;16.24;47.97;103446.19;5055301;28;19913;-76
2022/04/16 06:33:53;;;;;;;;;;;;;;;16.11;48.14;103443.41;5053575;28;19970;-74
2022/04/16 06:36:18;;;;;;;;;;;;;;;16.35;48.06;103452.97;5054902;28;19936;-76
2022/04/16 06:38:44;;;;;;;;;;;;;;;16.95;46.25;103447.63;5054589;28;19913;-76
2022/04/16 06:41:09;;;;;;;;;;;;;;;16.30;47.78;103450.00;5054408;28;19913;-76
2022/04/16 06:43:34;;;;;;;;;;;;;;;16.89;46.13;103445.72;5055189;28;19909;-75
2022/04/16 06:45:59;;;;;;;;;;;;;;;16.68;46.69;103438.56;5052678;28;20326;-75
2022/04/16 06:48:25;;;;;;;;;;;;;;;16.92;46.16;103444.50;5052783;28;20499;-75
2022/04/16 06:50:50;;;;;;;;;;;;;;;17.27;45.25;103440.63;5054526;28;19963;-75
2022/04/16 06:53:15;;;;;;;;;;;;;;;17.38;44.73;103442.72;5054400;28;20384;-75
2022/04/16 06:55:41;;;;;;;;;;;;;;;17.50;44.57;103431.06;5055085;28;20289;-75
2022/04/16 06:58:06;;;;;;;;;;;;;;;17.76;43.88;103432.09;5054659;28;19919;-76
2022/04/16 07:00:31;;;;;;;;;;;;;;;17.62;44.32;103433.16;5054483;28;19931;-75
2022/04/16 07:02:56;;;;;;;;;;;;;;;17.53;44.27;103433.34;5056692;28;19917;-76
2022/04/16 07:05:22;;;;;;;;;;;;;;;17.05;45.77;103430.94;5062203;28;19954;-75
2022/04/16 07:07:47;;;;;;;;;;;;;;;17.33;44.88;103432.47;5053698;28;19908;-78
2022/04/16 07:10:12;;;;;;;;;;;;;;;17.29;44.65;103439.38;5054671;28;19966;-77
2022/04/16 07:12:38;;;;;;;;;;;;;;;16.91;46.04;103442.78;5055203;28;19960;-75
2022/04/16 07:15:05;;;;;;;;;;;;;;;17.49;44.67;103442.16;5054880;28;20075;-75
2022/04/16 07:17:35;;;;;;;;;;;;;;;17.42;44.65;103452.13;5054180;28;19913;-74
2022/04/16 07:20:00;;;;;;;;;;;;;;;17.32;44.04;103449.81;5054107;28;19919;-76
2022/04/16 07:22:26;;;;;;;;;;;;;;;17.93;43.21;103445.06;5054882;28;19904;-76
2022/04/16 07:24:51;;;;;;;;;;;;;;;17.90;42.86;103450.09;5053933;28;19924;-76
2022/04/16 07:27:17;;;;;;;;;;;;;;;18.42;41.91;103458.16;5054073;28;20000;-75
2022/04/16 07:29:42;;;;;;;;;;;;;;;18.03;42.83;103448.19;5054280;28;19924;-76
2022/04/16 07:32:08;;;;;;;;;;;;;;;17.99;43.11;103454.25;5055191;28;19932;-75
2022/04/16 07:34:33;;;;;;;;;;;;;;;18.27;42.06;103458.44;5053780;28;20047;-74
2022/04/16 07:36:58;;;;;;;;;;;;;;;17.74;43.65;103456.81;5052107;28;20377;-75
2022/04/16 07:39:23;;;;;;;;;;;;;;;17.10;44.67;103452.91;5053440;28;19917;-75
2022/04/16 07:41:51;;;;;;;;;;;;;;;17.64;43.45;103447.38;5052946;28;19920;-75
2022/04/16 07:44:16;;;;;;;;;;;;;;;17.24;44.14;103455.44;5052981;28;20352;-74
2022/04/16 07:46:42;;;;;;;;;;;;;;;16.98;45.08;103454.53;5052997;28;19927;-73
2022/04/16 07:49:07;;;;;;;;;;;;;;;16.94;45.14;103458.72;5050177;28;19966;-73
2022/04/16 07:51:32;;;;;;;;;;;;;;;17.36;44.19;103455.66;5050980;28;19928;-74
2022/04/16 07:53:58;;;;;;;;;;;;;;;18.05;42.28;103457.00;5051358;28;20004;-75
2022/04/16 07:56:23;;;;;;;;;;;;;;;17.35;43.59;103459.44;5050995;28;20376;-74
2022/04/16 07:58:49;;;;;;;;;;;;;;;17.99;42.45;103454.25;5054767;28;20456;-74
2022/04/16 08:01:14;;;;;;;;;;;;;;;16.99;44.54;103458.91;5051334;28;19917;-74
2022/04/16 08:03:39;;;;;;;;;;;;;;;17.53;43.09;103457.00;5050888;28;20349;-74
2022/04/16 08:06:05;;;;;;;;;;;;;;;16.93;44.32;103457.84;5052290;28;19927;-75
2022/04/16 08:08:30;;;;;;;;;;;;;;;17.07;45.00;103459.59;5051176;28;19947;-75
2022/04/16 08:10:56;;;;;;;;;;;;;;;17.83;42.71;103460.13;5051285;28;19974;-74
2022/04/16 08:13:21;;;;;;;;;;;;;;;17.12;43.58;103467.13;5052397;28;20615;-74
2022/04/16 08:15:47;;;;;;;;;;;;;;;18.15;42.24;103478.31;5052161;28;19917;-74
2022/04/16 08:18:12;;;;;;;;;;;;;;;17.92;42.88;103472.50;5052239;28;19940;-73
2022/04/16 08:20:38;;;;;;;;;;;;;;;19.55;39.71;103469.22;5052082;28;20393;-74
2022/04/16 08:23:06;;;;;;;;;;;;;;;18.31;41.81;103473.28;5059047;28;20323;-74
2022/04/16 08:27:56;;;;;;;;;;;;;;;17.76;42.85;103471.03;5058987;28;19936;-76
2022/04/16 08:30:22;;;;;;;;;;;;;;;18.76;41.00;103474.22;5058426;28;20027;-76
2022/04/16 08:32:48;;;;;;;;;;;;;;;18.77;41.36;103473.16;5058574;28;19916;-75
2022/04/16 08:35:15;;;;;;;;;;;;;;;18.06;41.65;103485.03;5058996;28;19917;-75
2022/04/16 08:37:40;;;;;;;;;;;;;;;19.21;40.51;103481.34;5057683;28;19908;-76
2022/04/16 08:40:07;;;;;;;;;;;;;;;19.30;39.66;103481.94;5059040;28;20075;-74
2022/04/16 08:42:37;;;;;;;;;;;;;;;19.25;39.77;103481.75;5058530;28;19939;-74
2022/04/16 08:45:03;;;;;;;;;;;;;;;20.15;38.27;103475.81;5058074;28;20023;-75
2022/04/16 08:47:28;;;;;;;;;;;;;;;19.24;39.81;103480.09;5058983;28;19924;-75
2022/04/16 08:49:54;;;;;;;;;;;;;;;19.33;39.06;103486.97;5059104;28;19913;-75
2022/04/16 08:52:22;;;;;;;;;;;;;;;20.08;38.08;103483.25;5060073;28;19904;-75
2022/04/16 08:54:47;;;;;;;;;;;;;;;20.37;37.47;103482.56;5059149;28;19999;-75
2022/04/16 08:57:12;;;;;;;;;;;;;;;19.94;37.84;103478.97;5058961;28;19912;-74
2022/04/16 08:59:38;;;;;;;;;;;;;;;20.34;37.09;103483.03;5059708;28;20304;-75
2022/04/16 09:02:04;;;;;;;;;;;;;;;19.44;38.59;103478.09;5059500;28;19913;-75
2022/04/16 09:04:32;;;;;;;;;;;;;;;18.96;40.21;103471.41;5056039;28;19916;-74
2022/04/16 09:07:02;;;;;;;;;;;;;;;20.47;36.97;103469.22;5054383;28;20300;-73
2022/04/16 09:09:30;;;;;;;;;;;;;;;20.62;37.05;103474.28;5058215;28;20202;-75
2022/04/16 09:11:56;;;;;;;;;;;;;;;19.52;37.93;103475.09;5056211;28;19919;-73
2022/04/16 09:14:34;;;;;;;;;;;;;;;19.26;38.62;103467.06;5057583;28;20295;-75
2022/04/16 09:16:59;;;;;;;;;;;;;;;19.23;39.13;103473.78;5057307;28;19920;-73
2022/04/16 09:19:28;;;;;;;;;;;;;;;19.73;37.71;103461.09;5058795;28;19919;-74
2022/04/16 09:21:53;;;;;;;;;;;;;;;20.81;35.62;103460.38;5058410;28;19913;-75
2022/04/16 09:24:18;;;;;;;;;;;;;;;20.78;35.94;103465.47;5058969;28;19939;-75
2022/04/16 09:26:44;;;;;;;;;;;;;;;20.68;35.62;103454.25;5058184;28;20445;-75
2022/04/16 09:29:10;;;;;;;;;;;;;;;19.67;37.14;103448.34;5059053;28;20011;-74
2022/04/16 09:31:38;;;;;;;;;;;;;;;19.61;37.79;103453.84;5059068;28;19951;-73
2022/04/16 09:34:04;;;;;;;;;;;;;;;20.55;37.03;103449.81;5054239;28;20008;-73
2022/04/16 09:36:29;;;;;;;;;;;;;;;20.25;37.06;103448.88;5043618;28;19948;-74
2022/04/16 09:39:02;;;;;;;;;;;;;;;20.79;35.48;103459.81;5036677;28;20421;-75
2022/04/16 09:41:31;;;;;;;;;;;;;;;20.28;36.31;103466.72;5055855;28;19917;-74
2022/04/16 09:43:56;;;;;;;;;;;;;;;20.16;36.11;103463.84;5059670;28;20368;-76
2022/04/16 09:46:23;;;;;;;;;;;;;;;20.56;35.81;103458.84;5057344;28;19973;-77
2022/04/16 09:49:07;;;;;;;;;;;;;;;21.75;32.69;103443.25;5056084;28;19913;-74
2022/04/16 09:51:34;;;;;;;;;;;;;;;21.06;34.62;103449.38;5055909;28;19927;-74
2022/04/16 09:54:02;;;;;;;;;;;;;;;21.34;34.21;103451.50;5064630;28;19917;-73
2022/04/16 09:56:28;;;;;;;;;;;;;;;21.42;33.49;103453.91;5034539;28;19917;-74
2022/04/16 09:58:55;;;;;;;;;;;;;;;21.35;33.45;103445.78;5035044;28;19917;-77
2022/04/16 10:01:24;;;;;;;;;;;;;;;22.02;33.58;103443.66;5047536;28;19909;-72
2022/04/16 10:03:51;;;;;;;;;;;;;;;21.45;33.41;103434.28;5054492;28;19980;-74
2022/04/16 10:06:16;;;;;;;;;;;;;;;21.43;33.30;103441.88;5054684;28;20004;-75
2022/04/16 10:08:41;;;;;;;;;;;;;;;21.69;32.48;103436.81;5053785;28;20017;-74
2022/04/16 10:11:08;;;;;;;;;;;;;;;21.98;32.10;103437.81;5047559;28;19913;-75
2022/04/16 10:13:48;;;;;;;;;;;;;;;22.15;32.56;103444.22;5044981;28;19917;-73
2022/04/16 10:16:17;;;;;;;;;;;;;;;21.41;33.21;103438.53;5048560;28;19923;-73
2022/04/16 10:18:44;;;;;;;;;;;;;;;21.83;32.32;103438.31;5051547;28;20434;-74
2022/04/16 10:21:13;;;;;;;;;;;;;;;22.44;30.30;103429.56;5050614;28;20489;-74
2022/04/16 10:23:42;;;;;;;;;;;;;;;22.28;29.74;103435.78;5044497;28;20292;-74
2022/04/16 10:26:11;;;;;;;;;;;;;;;22.74;29.99;103434.03;5050962;28;19916;-75
2022/04/16 10:28:37;;;;;;;;;;;;;;;23.07;28.55;103431.41;5049576;28;19919;-73
2022/04/16 10:31:05;;;;;;;;;;;;;;;22.32;30.17;103431.50;5051199;28;19933;-73
2022/04/16 10:33:31;;;;;;;;;;;;;;;22.24;29.20;103428.28;5051068;28;19925;-74
2022/04/16 10:36:01;;;;;;;;;;;;;;;22.32;30.26;103427.91;5051060;28;20621;-74
2022/04/16 10:38:33;;;;;;;;;;;;;;;22.51;28.51;103433.00;5050808;28;20001;-75
2022/04/16 10:41:02;;;;;;;;;;;;;;;21.69;29.47;103436.81;5077285;28;20347;-75
2022/04/16 10:43:33;;;;;;;;;;;;;;;21.94;29.59;103447.56;5050796;28;20386;-74
2022/04/16 10:46:05;;;;;;;;;;;;;;;22.57;28.26;103436.69;5047540;28;20308;-76
2022/04/16 10:48:37;;;;;;;;;;;;;;;23.30;28.31;103442.25;5050604;28;20015;-72
2022/04/16 10:51:03;;;;;;;;;;;;;;;22.20;28.49;103440.78;5050559;28;19916;-73
2022/04/16 10:53:30;;;;;;;;;;;;;;;23.51;26.86;103427.81;5051178;28;20398;-75
2022/04/16 10:55:55;;;;;;;;;;;;;;;22.99;27.75;103443.59;5050874;28;19963;-74
2022/04/16 10:58:27;;;;;;;;;;;;;;;23.39;27.46;103438.88;5051918;28;19944;-76
2022/04/16 11:01:03;;;;;;;;;;;;;;;23.29;28.22;103438.66;5049242;28;20335;-75
2022/04/16 11:03:30;;;;;;;;;;;;;;;22.49;28.69;103439.78;5050764;28;19917;-75
2022/04/16 11:06:05;;;;;;;;;;;;;;;23.72;26.87;103437.25;5050027;28;20433;-74
2022/04/16 11:08:33;;;;;;;;;;;;;;;23.05;26.48;103436.31;5049866;28;20008;-74
2022/04/16 11:10:58;;;;;;;;;;;;;;;23.23;25.87;103428.69;5048940;28;19913;-74
2022/04/16 11:13:24;;;;;;;;;;;;;;;22.93;27.54;103424.53;5050917;28;19919;-74
2022/04/16 11:15:51;;;;;;;;;;;;;;;23.16;26.00;103427.16;5049999;28;19916;-74
2022/04/16 11:18:17;;;;;;;;;;;;;;;23.32;26.53;103416.25;5050686;28;20449;-74
2022/04/16 11:21:06;;;;;;;;;;;;;;;24.20;24.68;103421.81;5051063;28;19923;-75
2022/04/16 11:23:38;;;;;;;;;;;;;;;22.98;26.09;103416.41;5050888;28;19978;-74
2022/04/16 11:34:23;;;;;;;;;;;;;;;23.79;23.89;103405.78;5050697;28;19955;-73
2022/04/16 11:36:49;;;;;;;;;;;;;;;22.71;23.22;103405.19;5049323;28;19940;-74
2022/04/16 11:39:19;;;;;;;;;;;;;;;22.70;24.75;103404.34;5047673;28;20281;-73
2022/04/16 11:41:48;;;;;;;;;;;;;;;23.30;23.61;103404.66;5049465;28;19991;-75
2022/04/16 11:44:14;;;;;;;;;;;;;;;22.43;22.72;103399.63;5045955;28;19916;-74
2022/04/16 11:46:41;;;;;;;;;;;;;;;22.94;21.63;103396.88;5047646;28;20258;-76
2022/04/16 11:49:15;;;;;;;;;;;;;;;23.88;21.82;103395.22;5047527;28;19920;-76
2022/04/16 11:51:41;;;;;;;;;;;;;;;23.16;22.83;103406.06;5048859;28;19917;-73
2022/04/16 11:54:06;;;;;;;;;;;;;;;22.64;22.50;103405.31;5050021;28;19977;-77
2022/04/16 11:56:32;;;;;;;;;;;;;;;23.14;20.23;103402.72;5049662;28;19935;-75
2022/04/16 11:58:57;;;;;;;;;;;;;;;23.32;20.57;103405.28;5048745;28;20292;-74
2022/04/16 12:01:23;;;;;;;;;;;;;;;23.51;18.64;103403.97;5051001;28;19909;-73
2022/04/16 12:03:49;;;;;;;;;;;;;;;23.68;17.43;103406.72;5049493;28;20499;-74
2022/04/16 12:06:15;;;;;;;;;;;;;;;23.83;18.19;103406.94;5049157;28;19925;-73
2022/04/16 12:08:41;;;;;;;;;;;;;;;23.91;17.21;103406.50;5049650;28;19966;-75
2022/04/16 12:11:07;;;;;;;;;;;;;;;23.74;14.78;103402.97;5050174;28;19959;-76
2022/04/16 12:13:36;;;;;;;;;;;;;;;23.82;17.39;103402.50;5049365;28;19921;-74
2022/04/16 12:16:07;;;;;;;;;;;;;;;23.10;15.82;103406.19;5047985;28;19917;-74
2022/04/16 12:18:53;;;;;;;;;;;;;;;23.71;14.60;103399.88;5048420;28;19923;-74
2022/04/16 12:21:18;;;;;;;;;;;;;;;23.32;16.18;103399.81;5048296;28;20393;-76
2022/04/16 12:23:44;;;;;;;;;;;;;;;24.50;16.23;103398.53;5048805;28;19959;-74
2022/04/16 12:26:11;;;;;;;;;;;;;;;23.06;16.49;103391.31;5049129;28;19935;-74
2022/04/16 12:28:37;;;;;;;;;;;;;;;24.04;16.82;103402.59;5049536;28;19913;-73
2022/04/16 12:31:03;;;;;;;;;;;;;;;23.63;15.72;103389.31;5048665;28;20004;-76
2022/04/16 12:33:28;;;;;;;;;;;;;;;23.48;17.00;103388.00;5048706;28;19948;-76
2022/04/16 12:35:56;;;;;;;;;;;;;;;24.19;16.91;103387.19;5047449;28;19920;-75
2022/04/16 12:38:22;;;;;;;;;;;;;;;24.28;17.39;103385.63;5048025;28;19921;-76
2022/04/16 12:40:47;;;;;;;;;;;;;;;24.69;17.73;103388.88;5047863;28;20690;-74
2022/04/16 12:43:12;;;;;;;;;;;;;;;24.61;16.52;103392.09;5047894;28;19920;-77
2022/04/16 12:45:37;;;;;;;;;;;;;;;24.64;16.29;103389.66;5047648;28;19978;-74
2022/04/16 12:48:03;;;;;;;;;;;;;;;24.78;16.15;103385.44;5047838;28;19948;-73
2022/04/16 12:50:31;;;;;;;;;;;;;;;24.68;17.04;103388.06;5048086;28;19917;-75
2022/04/16 12:52:57;;;;;;;;;;;;;;;24.37;17.32;103394.28;5049330;28;20349;-74